Time;durP1;ratioP1;P1;durP2;ratioP2;P2;SDS_P1;SDS_P2;PMS_P1;PMS_P2;Temp;Humidity;BMP_temperature;BMP_pressure;BME280_temperature;BME280_humidity;BME280_pressure;Samples;Min_cycle;Max_cycle;Signal;HPM_P1;HPM_P2
2024/01/26 00:02:13;;;;;;;1.33;1.23;;;12.30;99.90;;;;;;5015147;28;20034;-81
2024/01/26 00:04:39;;;;;;;0.55;0.55;;;12.30;99.90;;;;;;5011250;28;20077;-82
2024/01/26 00:07:05;;;;;;;0.68;0.68;;;12.30;99.90;;;;;;5013185;28;20084;-82
2024/01/26 00:09:32;;;;;;;0.25;0.17;;;12.20;99.90;;;;;;5007941;28;20034;-81
2024/01/26 00:11:58;;;;;;;1.55;0.20;;;12.30;99.90;;;;;;5002847;28;20030;-81
2024/01/26 00:14:24;;;;;;;0.25;0.25;;;12.40;99.90;;;;;;5005498;28;20056;-81
2024/01/26 00:16:50;;;;;;;1.45;1.27;;;12.20;99.90;;;;;;5005177;28;20045;-81
2024/01/26 00:19:15;;;;;;;3.20;1.85;;;12.20;99.90;;;;;;5002612;28;20096;-81
2024/01/26 00:21:41;;;;;;;0.98;0.90;;;12.20;99.90;;;;;;5002548;28;20026;-81
2024/01/26 00:24:07;;;;;;;0.43;0.43;;;12.20;99.90;;;;;;5000306;28;20041;-81
2024/01/26 00:26:33;;;;;;;0.20;0.20;;;12.20;99.90;;;;;;5001209;28;20033;-81
2024/01/26 00:28:59;;;;;;;1.40;0.70;;;12.30;99.90;;;;;;5005789;28;20106;-80
2024/01/26 00:31:24;;;;;;;1.13;0.68;;;12.60;99.90;;;;;;5008313;28;20033;-81
2024/01/26 00:33:50;;;;;;;1.65;0.95;;;12.40;99.90;;;;;;5013129;28;20065;-81
2024/01/26 00:36:16;;;;;;;0.20;0.20;;;12.20;99.90;;;;;;5015194;28;20034;-81
2024/01/26 00:38:42;;;;;;;0.75;0.75;;;12.20;99.90;;;;;;5008574;28;20031;-81
2024/01/26 00:41:08;;;;;;;0.15;0.15;;;12.10;99.90;;;;;;5014795;28;20029;-81
2024/01/26 00:43:34;;;;;;;1.52;0.93;;;12.20;99.90;;;;;;5015344;28;20164;-82
2024/01/26 00:46:00;;;;;;;0.20;0.20;;;12.30;99.90;;;;;;5012358;28;20570;-81
2024/01/26 00:48:26;;;;;;;1.40;1.02;;;12.30;99.90;;;;;;5008938;28;20101;-82
2024/01/26 00:50:54;;;;;;;0.40;0.30;;;12.30;99.90;;;;;;4999564;28;20041;-81
2024/01/26 00:53:20;;;;;;;1.50;1.27;;;12.40;99.90;;;;;;4999646;28;20374;-82
2024/01/26 00:55:46;;;;;;;0.08;0.08;;;12.20;99.90;;;;;;4997440;28;20407;-82
2024/01/26 00:58:12;;;;;;;0.25;0.25;;;12.30;99.90;;;;;;5000801;28;20036;-81
2024/01/26 01:00:39;;;;;;;0.15;0.15;;;12.40;99.90;;;;;;5014388;28;20057;-81
2024/01/26 01:03:05;;;;;;;0.45;0.45;;;12.30;99.90;;;;;;5010914;28;20104;-81
2024/01/26 01:05:31;;;;;;;0.20;0.20;;;12.30;99.90;;;;;;5012435;28;20378;-81
2024/01/26 01:07:58;;;;;;;0.80;0.80;;;12.30;99.90;;;;;;5004364;28;20042;-82
2024/01/26 01:10:24;;;;;;;0.55;0.15;;;12.40;99.90;;;;;;5004513;28;20022;-81
2024/01/26 01:12:52;;;;;;;1.70;0.63;;;12.30;99.90;;;;;;5008328;28;20033;-81
2024/01/26 01:15:18;;;;;;;0.88;0.50;;;12.40;99.90;;;;;;5008857;28;20026;-81
2024/01/26 01:17:45;;;;;;;0.13;0.05;;;12.30;99.90;;;;;;5013333;28;20520;-82
2024/01/26 01:20:13;;;;;;;0.17;0.17;;;12.40;99.90;;;;;;5012964;28;20605;-82
2024/01/26 01:22:41;;;;;;;0.17;0.17;;;12.60;99.90;;;;;;5012761;28;20509;-82
2024/01/26 01:25:08;;;;;;;0.47;0.47;;;12.50;99.90;;;;;;5003667;28;20014;-81
2024/01/26 01:27:36;;;;;;;7.82;1.23;;;12.40;99.90;;;;;;5013776;28;20463;-82
2024/01/26 01:30:06;;;;;;;1.80;1.35;;;12.50;99.90;;;;;;5009835;28;20030;-82
2024/01/26 01:32:33;;;;;;;2.90;1.63;;;12.30;99.90;;;;;;5013991;28;20026;-82
2024/01/26 01:35:00;;;;;;;1.60;0.60;;;12.30;99.90;;;;;;5005391;28;20509;-82
2024/01/26 01:37:26;;;;;;;0.10;0.10;;;12.50;99.90;;;;;;5010845;28;20052;-81
2024/01/26 01:39:52;;;;;;;1.17;0.95;;;12.50;99.90;;;;;;5006641;28;20030;-81
2024/01/26 01:42:18;;;;;;;1.38;1.13;;;12.50;99.90;;;;;;5008060;28;20022;-79
2024/01/26 01:44:45;;;;;;;2.17;1.85;;;12.40;99.90;;;;;;5013572;28;20069;-82
2024/01/26 01:47:12;;;;;;;1.42;1.33;;;12.40;99.90;;;;;;5013293;28;20103;-81
2024/01/26 01:49:39;;;;;;;0.25;0.22;;;12.40;99.90;;;;;;5007756;28;20478;-82
2024/01/26 01:52:09;;;;;;;1.80;1.42;;;12.40;99.90;;;;;;5004220;28;20030;-82
2024/01/26 01:54:37;;;;;;;2.22;1.73;;;12.30;99.90;;;;;;5005590;28;20029;-82
2024/01/26 01:57:04;;;;;;;0.50;0.50;;;12.30;99.90;;;;;;5000593;28;20045;-81
2024/01/26 01:59:31;;;;;;;2.92;1.27;;;12.30;99.90;;;;;;5001211;28;20045;-82
2024/01/26 02:01:57;;;;;;;0.73;0.73;;;12.30;99.90;;;;;;4980882;28;20479;-81
2024/01/26 02:04:23;;;;;;;1.30;0.65;;;12.40;99.90;;;;;;4999084;28;20098;-82
2024/01/26 02:06:57;;;;;;;2.50;0.43;;;12.30;99.90;;;;;;4996076;28;20113;-82
2024/01/26 02:09:23;;;;;;;0.63;0.50;;;12.40;99.90;;;;;;4997518;28;20033;-82
2024/01/26 02:11:49;;;;;;;0.20;0.20;;;12.50;99.90;;;;;;5013274;28;20022;-81
2024/01/26 02:14:15;;;;;;;3.03;1.83;;;12.30;99.90;;;;;;5011873;28;20479;-82
2024/01/26 02:16:52;;;;;;;1.90;1.33;;;12.40;99.90;;;;;;5007065;28;20121;-81
2024/01/26 02:19:18;;;;;;;0.22;0.22;;;12.30;99.90;;;;;;5011211;28;20034;-81
2024/01/26 02:21:44;;;;;;;0.82;0.63;;;12.40;99.90;;;;;;5010952;28;20021;-82
2024/01/26 02:24:09;;;;;;;0.43;0.43;;;12.50;99.90;;;;;;5010753;28;20604;-82
2024/01/26 02:26:35;;;;;;;0.35;0.35;;;12.50;99.90;;;;;;5009082;28;20029;-82
2024/01/26 02:29:01;;;;;;;0.00;0.00;;;12.50;99.90;;;;;;5008191;28;20068;-82
2024/01/26 02:31:27;;;;;;;3.13;0.73;;;12.40;99.90;;;;;;5002690;28;20096;-81
2024/01/26 02:33:53;;;;;;;1.23;1.13;;;12.40;99.90;;;;;;5003165;28;20025;-81
2024/01/26 02:36:18;;;;;;;8.38;2.13;;;12.40;99.90;;;;;;5014907;28;20033;-82
2024/01/26 02:38:44;;;;;;;0.03;0.03;;;12.40;99.90;;;;;;5002968;28;20049;-82
2024/01/26 02:41:10;;;;;;;20.55;1.83;;;12.40;99.90;;;;;;5004445;28;20030;-81
2024/01/26 02:43:36;;;;;;;43.53;1.58;;;12.40;99.90;;;;;;4998652;28;20112;-82
2024/01/26 02:46:09;;;;;;;2.15;1.95;;;12.50;99.90;;;;;;4995531;28;20018;-82
2024/01/26 02:48:34;;;;;;;0.10;0.10;;;12.40;99.90;;;;;;4998153;28;20022;-82
2024/01/26 02:51:00;;;;;;;6.53;2.50;;;12.40;99.90;;;;;;5011052;28;20026;-82
2024/01/26 02:53:26;;;;;;;0.75;0.65;;;12.40;99.90;;;;;;5010684;28;20041;-82
2024/01/26 02:55:52;;;;;;;3.50;1.55;;;12.50;99.90;;;;;;5007325;28;20030;-81
2024/01/26 02:58:18;;;;;;;2.30;1.55;;;12.50;99.90;;;;;;5002340;28;20038;-82
2024/01/26 03:00:44;;;;;;;3.90;2.65;;;12.50;99.90;;;;;;5006586;28;20026;-82
2024/01/26 03:03:10;;;;;;;3.38;3.08;;;12.40;99.90;;;;;;5008926;28;20026;-81
2024/01/26 03:05:37;;;;;;;1.55;1.45;;;12.30;99.90;;;;;;5019633;28;20022;-82
2024/01/26 03:08:02;;;;;;;0.45;0.45;;;12.30;99.90;;;;;;4998725;28;20081;-82
2024/01/26 03:10:28;;;;;;;1.52;1.05;;;12.40;99.90;;;;;;4998205;28;20038;-82
2024/01/26 03:12:55;;;;;;;1.42;1.33;;;12.40;99.90;;;;;;5008971;28;20561;-81
2024/01/26 03:15:21;;;;;;;0.85;0.85;;;12.40;99.90;;;;;;4994388;28;20034;-81
2024/01/26 03:17:47;;;;;;;3.25;2.20;;;12.40;99.90;;;;;;5010972;28;20053;-82
2024/01/26 03:20:13;;;;;;;5.20;2.72;;;12.40;99.90;;;;;;5011377;28;20471;-81
2024/01/26 03:22:40;;;;;;;0.05;0.05;;;12.40;99.90;;;;;;5007340;28;20022;-81
2024/01/26 03:25:06;;;;;;;2.63;1.48;;;12.40;99.90;;;;;;5009464;28;20367;-82
2024/01/26 03:27:32;;;;;;;0.98;0.65;;;12.40;99.90;;;;;;5005703;28;20030;-82
2024/01/26 03:29:58;;;;;;;3.45;1.90;;;12.50;99.90;;;;;;5005923;28;20479;-82
2024/01/26 03:32:25;;;;;;;3.20;1.58;;;12.40;99.90;;;;;;5003371;28;20023;-82
2024/01/26 03:34:51;;;;;;;0.45;0.45;;;12.30;99.90;;;;;;5002046;28;20030;-81
2024/01/26 03:37:17;;;;;;;0.25;0.25;;;12.40;99.90;;;;;;5000444;28;20443;-82
2024/01/26 03:39:43;;;;;;;4.95;2.38;;;12.40;99.90;;;;;;4996899;28;20037;-81
2024/01/26 03:42:11;;;;;;;1.42;1.10;;;12.40;99.90;;;;;;5001426;28;20030;-81
2024/01/26 03:44:38;;;;;;;3.67;2.75;;;12.40;99.90;;;;;;5014572;28;20403;-82
2024/01/26 03:47:06;;;;;;;0.65;0.47;;;12.40;99.90;;;;;;5010380;28;20029;-82
2024/01/26 03:49:32;;;;;;;0.52;0.52;;;12.40;99.90;;;;;;5004445;28;20037;-81
2024/01/26 03:51:58;;;;;;;1.42;0.98;;;12.50;99.90;;;;;;5005781;28;20033;-81
2024/01/26 03:54:23;;;;;;;8.95;3.60;;;12.50;99.90;;;;;;5007966;28;20489;-81
2024/01/26 03:56:50;;;;;;;2.97;1.98;;;12.50;99.90;;;;;;5002917;28;20443;-81
2024/01/26 03:59:16;;;;;;;3.60;2.33;;;12.50;99.90;;;;;;4994544;28;20025;-81
2024/01/26 04:01:43;;;;;;;0.73;0.73;;;12.50;99.90;;;;;;4999339;28;20033;-81
2024/01/26 04:04:09;;;;;;;5.25;1.40;;;12.40;99.90;;;;;;5003371;28;20040;-82
2024/01/26 04:06:41;;;;;;;6.50;3.72;;;12.40;99.90;;;;;;4997241;28;20026;-81
2024/01/26 04:09:08;;;;;;;1.63;1.52;;;12.50;99.90;;;;;;4998756;28;20038;-82
2024/01/26 04:11:34;;;;;;;6.30;3.28;;;12.50;99.90;;;;;;4993942;28;20018;-83
2024/01/26 04:14:00;;;;;;;0.45;0.45;;;12.50;99.90;;;;;;4994238;28;20475;-83
2024/01/26 04:16:26;;;;;;;0.50;0.50;;;12.40;99.90;;;;;;5001020;28;20030;-83
2024/01/26 04:18:52;;;;;;;4.47;3.08;;;12.40;99.90;;;;;;5011131;28;20034;-82
2024/01/26 04:21:18;;;;;;;8.63;1.15;;;12.30;99.90;;;;;;5010694;28;20088;-83
2024/01/26 04:23:44;;;;;;;0.60;0.60;;;12.40;99.90;;;;;;5009073;28;20053;-83
2024/01/26 04:26:10;;;;;;;1.02;1.02;;;12.40;99.90;;;;;;5001748;28;20065;-83
2024/01/26 04:28:36;;;;;;;3.58;2.00;;;12.40;99.90;;;;;;5011448;28;20041;-83
2024/01/26 04:31:03;;;;;;;0.68;0.68;;;12.40;99.90;;;;;;5000090;28;20022;-83
2024/01/26 04:33:29;;;;;;;0.98;0.77;;;12.50;99.90;;;;;;5003966;28;20025;-83
2024/01/26 04:35:55;;;;;;;1.88;1.35;;;12.40;99.90;;;;;;4997792;28;20030;-84
2024/01/26 04:38:21;;;;;;;5.28;3.00;;;12.40;99.90;;;;;;5000132;28;20042;-84
2024/01/26 04:40:47;;;;;;;2.67;1.60;;;12.40;99.90;;;;;;4999264;28;20027;-85
2024/01/26 04:43:13;;;;;;;0.00;0.00;;;12.50;99.90;;;;;;5001009;28;20054;-85
2024/01/26 04:45:38;;;;;;;0.43;0.43;;;12.40;99.90;;;;;;5013455;28;20030;-85
2024/01/26 04:48:05;;;;;;;1.30;0.88;;;12.50;99.90;;;;;;4997694;28;20467;-86
2024/01/26 04:50:31;;;;;;;2.03;1.10;;;12.40;99.90;;;;;;5013849;28;20033;-87
2024/01/26 04:52:57;;;;;;;3.58;2.10;;;12.50;99.90;;;;;;5013140;28;20026;-87
2024/01/26 04:55:26;;;;;;;4.75;3.20;;;12.50;99.90;;;;;;5010753;28;20034;-87
2024/01/26 04:57:52;;;;;;;0.70;0.70;;;12.40;99.90;;;;;;5010230;28;20045;-87
2024/01/26 05:00:18;;;;;;;1.58;1.42;;;12.30;99.90;;;;;;5006120;28;20450;-86
2024/01/26 05:02:44;;;;;;;2.30;0.88;;;12.30;99.90;;;;;;5006319;28;20021;-86
2024/01/26 05:05:14;;;;;;;2.13;0.98;;;12.40;99.90;;;;;;5001398;28;20490;-86
2024/01/26 05:07:41;;;;;;;4.28;1.50;;;12.40;99.90;;;;;;5002345;28;20042;-86
2024/01/26 05:10:07;;;;;;;2.08;1.70;;;12.40;99.90;;;;;;5004412;28;20026;-85
2024/01/26 05:12:33;;;;;;;1.13;0.63;;;12.40;99.90;;;;;;4998612;28;20030;-87
2024/01/26 05:14:59;;;;;;;1.17;0.85;;;12.30;99.90;;;;;;4995782;28;20481;-86
2024/01/26 05:17:25;;;;;;;3.60;2.25;;;12.30;99.90;;;;;;5011273;28;20499;-85
2024/01/26 05:19:51;;;;;;;2.50;1.90;;;12.40;99.90;;;;;;5012168;28;20028;-85
2024/01/26 05:22:18;;;;;;;2.00;1.10;;;12.40;99.90;;;;;;5011489;28;20398;-87
2024/01/26 05:24:45;;;;;;;3.20;1.63;;;12.40;99.90;;;;;;5008521;28;20049;-85
2024/01/26 05:27:11;;;;;;;2.03;1.52;;;12.40;99.90;;;;;;5008737;28;20030;-88
2024/01/26 05:29:38;;;;;;;11.15;4.55;;;12.40;99.90;;;;;;5004319;28;20041;-86
2024/01/26 05:32:05;;;;;;;7.45;3.05;;;12.50;99.90;;;;;;5006273;28;20026;-86
2024/01/26 05:34:31;;;;;;;1.15;1.15;;;12.50;99.90;;;;;;5000344;28;20105;-86
2024/01/26 05:36:57;;;;;;;3.70;2.25;;;12.50;99.90;;;;;;5008351;28;20116;-86
2024/01/26 05:39:26;;;;;;;4.72;3.70;;;12.40;99.90;;;;;;4998327;28;20027;-87
2024/01/26 05:41:53;;;;;;;8.20;1.77;;;12.50;99.90;;;;;;4999197;28;20018;-86
2024/01/26 05:44:19;;;;;;;2.72;1.83;;;12.50;99.90;;;;;;4996210;28;20034;-85
2024/01/26 05:46:45;;;;;;;5.10;1.85;;;12.50;99.90;;;;;;5010790;28;20037;-86
2024/01/26 05:49:11;;;;;;;2.90;1.30;;;12.50;99.90;;;;;;5012716;28;20026;-86
2024/01/26 05:51:37;;;;;;;6.93;2.78;;;12.40;99.90;;;;;;5009061;28;20023;-88
2024/01/26 05:54:03;;;;;;;0.68;0.65;;;12.60;99.90;;;;;;5011180;28;20028;-87
2024/01/26 05:56:29;;;;;;;10.65;5.10;;;12.50;99.90;;;;;;5004697;28;20022;-86
2024/01/26 05:58:55;;;;;;;2.70;2.50;;;12.50;99.90;;;;;;5007403;28;20452;-87
2024/01/26 06:01:21;;;;;;;4.72;2.90;;;12.50;99.90;;;;;;5003545;28;20026;-86
2024/01/26 06:03:47;;;;;;;5.10;2.38;;;12.50;99.90;;;;;;5003013;28;20569;-86
2024/01/26 06:06:12;;;;;;;0.88;0.85;;;12.50;99.90;;;;;;5001288;28;20489;-84
2024/01/26 06:08:42;;;;;;;4.47;2.83;;;12.60;99.90;;;;;;4999247;28;20049;-86
2024/01/26 06:11:09;;;;;;;8.73;1.33;;;12.70;99.90;;;;;;5000776;28;20046;-86
2024/01/26 06:13:36;;;;;;;5.85;2.88;;;12.80;99.90;;;;;;4996876;28;20038;-86
2024/01/26 06:16:03;;;;;;;20.35;2.65;;;12.70;99.90;;;;;;5018136;28;20022;-82
2024/01/26 06:18:30;;;;;;;2.20;1.83;;;12.60;99.90;;;;;;5012727;28;20052;-87
2024/01/26 06:20:56;;;;;;;39.95;3.75;;;12.70;99.90;;;;;;5009641;28;20037;-83
2024/01/26 06:23:22;;;;;;;3.83;1.00;;;12.70;99.90;;;;;;5010875;28;20026;-86
2024/01/26 06:25:48;;;;;;;5.85;3.05;;;12.70;99.90;;;;;;5007460;28;20487;-85
2024/01/26 06:28:14;;;;;;;5.63;2.58;;;12.80;99.90;;;;;;5007839;28;20037;-85
2024/01/26 06:30:40;;;;;;;6.10;2.10;;;12.80;99.90;;;;;;5010505;28;20022;-86
2024/01/26 06:33:06;;;;;;;3.50;1.45;;;12.80;99.90;;;;;;5003231;28;20027;-86
2024/01/26 06:35:32;;;;;;;6.18;3.70;;;12.90;99.90;;;;;;5001493;28;20046;-85
2024/01/26 06:37:59;;;;;;;0.82;0.80;;;12.90;99.90;;;;;;4998272;28;20527;-85
2024/01/26 06:40:24;;;;;;;0.50;0.50;;;13.00;99.90;;;;;;5009364;28;20114;-87
2024/01/26 06:42:50;;;;;;;1.45;0.88;;;12.90;99.90;;;;;;4995965;28;20093;-85
2024/01/26 06:45:16;;;;;;;1.17;0.75;;;13.00;99.90;;;;;;5010196;28;20374;-80
2024/01/26 06:47:42;;;;;;;2.97;2.13;;;12.90;99.90;;;;;;5004664;28;20030;-86
2024/01/26 06:50:08;;;;;;;6.10;3.10;;;13.00;99.90;;;;;;5009100;28;20094;-84
2024/01/26 06:52:35;;;;;;;11.50;2.67;;;13.00;99.90;;;;;;5012897;28;20030;-84
2024/01/26 06:55:01;;;;;;;2.03;1.42;;;13.00;99.90;;;;;;5004559;28;20084;-85
2024/01/26 06:57:27;;;;;;;2.50;1.85;;;13.10;99.90;;;;;;5006897;28;20052;-85
2024/01/26 06:59:53;;;;;;;1.85;1.17;;;13.10;99.90;;;;;;5001158;28;20030;-84
2024/01/26 07:02:19;;;;;;;1.70;1.40;;;13.10;99.90;;;;;;5002371;28;20487;-78
2024/01/26 07:04:44;;;;;;;0.90;0.70;;;13.10;99.90;;;;;;5006664;28;20097;-77
2024/01/26 07:07:10;;;;;;;1.67;1.48;;;13.10;99.90;;;;;;5007711;28;20402;-78
2024/01/26 07:09:36;;;;;;;3.35;1.30;;;13.20;99.90;;;;;;5007219;28;20113;-75
2024/01/26 07:12:03;;;;;;;0.52;0.50;;;13.10;99.90;;;;;;5008412;28;20037;-77
2024/01/26 07:14:29;;;;;;;2.42;1.38;;;13.10;99.90;;;;;;5003918;28;20930;-76
2024/01/26 07:16:55;;;;;;;3.05;1.88;;;13.10;99.90;;;;;;5006819;28;20037;-76
2024/01/26 07:19:21;;;;;;;2.80;1.90;;;13.10;99.90;;;;;;5005635;28;20436;-76
2024/01/26 07:21:47;;;;;;;4.28;1.05;;;13.10;99.90;;;;;;5003335;28;20037;-78
2024/01/26 07:24:13;;;;;;;3.17;1.23;;;13.20;99.90;;;;;;5004696;28;20050;-77
2024/01/26 07:26:41;;;;;;;6.97;1.70;;;13.20;99.90;;;;;;5007909;28;20114;-75
2024/01/26 07:29:07;;;;;;;2.35;1.98;;;13.20;99.90;;;;;;5008873;28;20022;-75
2024/01/26 07:31:33;;;;;;;0.38;0.38;;;13.10;99.90;;;;;;5005705;28;20025;-75
2024/01/26 07:33:59;;;;;;;4.13;0.90;;;13.20;99.90;;;;;;4999966;28;20037;-77
2024/01/26 07:36:26;;;;;;;0.52;0.30;;;13.30;99.90;;;;;;5005691;28;20024;-77
2024/01/26 07:38:52;;;;;;;0.30;0.30;;;13.20;99.90;;;;;;5004567;28;20043;-77
2024/01/26 07:41:18;;;;;;;9.48;1.80;;;13.20;99.90;;;;;;5003148;28;20049;-77
2024/01/26 07:43:44;;;;;;;1.20;0.98;;;13.20;99.90;;;;;;5005285;28;20029;-77
2024/01/26 07:46:11;;;;;;;0.73;0.73;;;13.20;99.90;;;;;;5004387;28;20037;-78
2024/01/26 07:48:37;;;;;;;0.57;0.32;;;13.20;99.90;;;;;;5001621;28;20018;-75
2024/01/26 07:51:03;;;;;;;4.88;1.75;;;13.10;99.90;;;;;;5006519;28;20183;-76
2024/01/26 07:53:29;;;;;;;3.33;3.03;;;13.10;99.90;;;;;;5004754;28;20624;-77
2024/01/26 07:55:55;;;;;;;0.80;0.65;;;13.20;99.90;;;;;;5001500;28;20035;-77
2024/01/26 07:58:21;;;;;;;0.80;0.77;;;13.20;99.90;;;;;;5000946;28;20041;-76
2024/01/26 08:00:47;;;;;;;6.20;2.60;;;13.30;99.90;;;;;;5005737;28;20026;-76
2024/01/26 08:03:13;;;;;;;1.20;1.10;;;13.40;99.90;;;;;;5023018;28;20026;-76
2024/01/26 08:05:39;;;;;;;4.78;3.45;;;13.40;99.90;;;;;;5004548;28;20022;-77
2024/01/26 08:08:05;;;;;;;2.25;2.05;;;13.30;99.90;;;;;;5006945;28;20118;-77
2024/01/26 08:10:31;;;;;;;1.17;0.90;;;13.40;99.90;;;;;;5004856;28;20109;-77
2024/01/26 08:12:56;;;;;;;8.40;3.17;;;13.40;99.90;;;;;;5005708;28;20035;-75
2024/01/26 08:15:29;;;;;;;3.17;2.53;;;13.30;99.90;;;;;;5006366;28;20034;-77
2024/01/26 08:17:55;;;;;;;15.20;2.80;;;13.40;99.90;;;;;;5003704;28;20104;-78
2024/01/26 08:20:21;;;;;;;2.35;1.60;;;13.30;99.90;;;;;;5007917;28;20421;-75
2024/01/26 08:22:47;;;;;;;3.90;1.55;;;13.40;99.90;;;;;;5007153;28;20030;-75
2024/01/26 08:25:13;;;;;;;0.50;0.40;;;13.40;99.90;;;;;;5006492;28;20029;-75
2024/01/26 08:27:39;;;;;;;2.60;1.38;;;13.40;99.90;;;;;;5005355;28;20026;-75
2024/01/26 08:30:06;;;;;;;11.35;3.85;;;13.40;99.90;;;;;;5007384;28;20033;-77
2024/01/26 08:32:34;;;;;;;8.50;2.20;;;13.40;99.90;;;;;;5007300;28;20157;-76
2024/01/26 08:35:00;;;;;;;1.52;1.42;;;13.40;99.90;;;;;;5008417;28;20037;-76
2024/01/26 08:37:26;;;;;;;7.95;2.15;;;13.40;99.90;;;;;;5007692;28;20053;-75
2024/01/26 08:39:54;;;;;;;13.77;2.05;;;13.30;99.90;;;;;;5008786;28;20525;-77
2024/01/26 08:42:20;;;;;;;12.77;1.70;;;13.40;99.90;;;;;;4998983;28;20022;-75
2024/01/26 08:44:46;;;;;;;2.35;1.60;;;13.30;99.90;;;;;;5011473;28;20034;-78
2024/01/26 08:47:12;;;;;;;3.00;1.35;;;13.30;99.90;;;;;;5001359;28;20386;-75
2024/01/26 08:49:37;;;;;;;2.17;1.63;;;13.30;99.90;;;;;;5012748;28;20414;-77
2024/01/26 08:52:05;;;;;;;0.55;0.55;;;13.30;99.90;;;;;;5011220;28;20430;-79
2024/01/26 08:54:31;;;;;;;7.93;1.15;;;13.30;99.90;;;;;;5012187;28;20037;-73
2024/01/26 08:56:57;;;;;;;1.92;0.60;;;13.20;99.90;;;;;;5008313;28;20061;-79
2024/01/26 08:59:23;;;;;;;2.88;0.70;;;13.00;99.90;;;;;;5015145;28;20466;-80
2024/01/26 09:01:49;;;;;;;0.25;0.25;;;12.60;99.90;;;;;;5008633;28;20478;-76
2024/01/26 09:04:15;;;;;;;14.35;1.92;;;12.50;99.90;;;;;;5003805;28;20538;-77
2024/01/26 09:06:40;;;;;;;10.10;1.80;;;12.40;99.90;;;;;;5013861;28;20419;-77
2024/01/26 09:09:06;;;;;;;1.77;0.32;;;12.40;99.90;;;;;;4931004;28;1975189;-78
2024/01/26 09:11:33;;;;;;;3.65;0.68;;;12.40;99.90;;;;;;4998486;28;20080;-78
2024/01/26 09:13:59;;;;;;;8.32;0.82;;;12.40;99.90;;;;;;5012141;28;20509;-78
2024/01/26 09:16:26;;;;;;;4.10;0.95;;;12.40;99.90;;;;;;5007301;28;20033;-78
2024/01/26 09:18:51;;;;;;;20.33;1.63;;;12.30;99.90;;;;;;5007041;28;20050;-78
2024/01/26 09:21:17;;;;;;;0.30;0.30;;;12.30;99.90;;;;;;5010828;28;20486;-77
2024/01/26 09:23:43;;;;;;;16.35;0.63;;;12.30;99.90;;;;;;5004729;28;20033;-77
2024/01/26 09:26:10;;;;;;;1.85;1.48;;;12.10;99.90;;;;;;5001631;28;20062;-78
2024/01/26 09:28:37;;;;;;;6.97;1.45;;;11.90;99.90;;;;;;5001403;28;20033;-78
2024/01/26 09:31:03;;;;;;;0.08;0.08;;;11.80;99.90;;;;;;5007363;28;20072;-77
2024/01/26 09:33:29;;;;;;;1.98;1.35;;;11.80;99.90;;;;;;4999220;28;20561;-77
2024/01/26 09:35:58;;;;;;;1.05;0.55;;;11.80;99.90;;;;;;5006800;28;20026;-74
2024/01/26 09:38:24;;;;;;;1.27;1.17;;;11.70;99.90;;;;;;5008330;28;20037;-75
2024/01/26 09:40:54;;;;;;;0.00;0.00;;;11.70;99.90;;;;;;5009459;28;20037;-74
2024/01/26 09:43:20;;;;;;;6.32;0.95;;;11.70;99.90;;;;;;5014133;28;20031;-75
2024/01/26 09:45:49;;;;;;;1.88;0.68;;;11.70;99.90;;;;;;5014011;28;20036;-74
2024/01/26 09:48:18;;;;;;;0.55;0.35;;;11.70;99.90;;;;;;5010268;28;20097;-75
2024/01/26 09:50:50;;;;;;;1.65;1.55;;;11.70;99.90;;;;;;5012252;28;20049;-76
2024/01/26 09:53:18;;;;;;;1.88;0.57;;;11.60;99.90;;;;;;5010237;28;20026;-76
2024/01/26 09:55:46;;;;;;;0.20;0.10;;;11.50;99.90;;;;;;5009866;28;20049;-75
2024/01/26 09:58:13;;;;;;;3.97;0.90;;;11.50;99.90;;;;;;5004500;28;20076;-76
2024/01/26 10:00:39;;;;;;;9.02;0.73;;;11.50;99.90;;;;;;5002351;28;20517;-76
2024/01/26 10:03:05;;;;;;;3.42;0.63;;;11.40;99.90;;;;;;5000825;28;20026;-77
2024/01/26 10:05:32;;;;;;;1.70;0.30;;;11.40;99.90;;;;;;5013883;28;20022;-77
2024/01/26 10:07:57;;;;;;;5.05;0.90;;;11.30;99.90;;;;;;5010900;28;20022;-76
2024/01/26 10:10:23;;;;;;;1.38;0.68;;;11.50;99.90;;;;;;5011424;28;20430;-76
2024/01/26 10:12:54;;;;;;;10.63;1.10;;;11.80;99.90;;;;;;5012652;28;20084;-76
2024/01/26 10:15:20;;;;;;;0.00;0.00;;;12.00;99.90;;;;;;5002098;28;20022;-77
2024/01/26 10:17:54;;;;;;;0.60;0.52;;;12.10;99.90;;;;;;5008047;28;20046;-78
2024/01/26 10:20:20;;;;;;;1.60;0.45;;;12.10;99.90;;;;;;5005575;28;20022;-78
2024/01/26 10:22:47;;;;;;;11.52;0.35;;;12.10;99.90;;;;;;5005666;28;20117;-80
2024/01/26 10:25:14;;;;;;;1.48;0.40;;;12.30;99.90;;;;;;5012446;28;20037;-77
2024/01/26 10:27:40;;;;;;;3.00;0.55;;;12.20;99.90;;;;;;5012898;28;20026;-78
2024/01/26 10:30:07;;;;;;;0.10;0.10;;;12.30;99.90;;;;;;5005191;28;20088;-78
2024/01/26 10:32:34;;;;;;;0.10;0.10;;;12.30;99.90;;;;;;5010468;28;20053;-77
2024/01/26 10:35:04;;;;;;;0.05;0.05;;;12.50;99.90;;;;;;5007918;28;20032;-77
2024/01/26 10:37:34;;;;;;;0.55;0.55;;;12.30;99.90;;;;;;5007081;28;20092;-79
2024/01/26 10:40:01;;;;;;;1.00;0.52;;;12.50;99.90;;;;;;5004838;28;20033;-79
2024/01/26 10:42:32;;;;;;;6.40;0.85;;;12.40;99.90;;;;;;5007446;28;20045;-79
2024/01/26 10:45:01;;;;;;;0.65;0.43;;;12.50;99.90;;;;;;5011143;28;20026;-77
2024/01/26 10:47:28;;;;;;;28.50;1.00;;;12.40;99.90;;;;;;5003226;28;20021;-79
2024/01/26 10:49:57;;;;;;;0.20;0.20;;;12.30;99.90;;;;;;5009172;28;20534;-78
2024/01/26 10:52:23;;;;;;;3.17;0.50;;;12.20;99.90;;;;;;5010033;28;20049;-77
2024/01/26 10:54:51;;;;;;;1.35;0.70;;;12.30;99.90;;;;;;5008181;28;20058;-77
2024/01/26 10:57:21;;;;;;;0.00;0.00;;;12.40;99.90;;;;;;5023744;28;20430;-84
2024/01/26 10:59:48;;;;;;;2.13;0.77;;;12.80;99.90;;;;;;5004499;28;20525;-79
2024/01/26 11:02:31;;;;;;;0.00;0.00;;;12.60;99.90;;;;;;5005192;28;20042;-77
2024/01/26 11:05:02;;;;;;;2.28;0.77;;;12.70;99.90;;;;;;4995703;28;20029;-79
2024/01/26 11:07:32;;;;;;;0.10;0.10;;;12.80;99.90;;;;;;4997511;28;20638;-80
2024/01/26 11:10:02;;;;;;;0.00;0.00;;;13.20;99.90;;;;;;4998066;28;20038;-78
2024/01/26 11:12:32;;;;;;;4.85;2.33;;;13.50;99.90;;;;;;5006770;28;20040;-77
2024/01/26 11:15:15;;;;;;;1.60;1.45;;;13.10;99.90;;;;;;5004667;28;20078;-78
2024/01/26 11:17:51;;;;;;;0.93;0.30;;;12.50;99.90;;;;;;5002847;28;20115;-77
2024/01/26 11:20:26;;;;;;;2.03;0.57;;;12.00;99.90;;;;;;5007665;28;20041;-77
2024/01/26 11:23:11;;;;;;;3.83;0.60;;;11.40;99.90;;;;;;5005603;28;20045;-77
2024/01/26 11:25:41;;;;;;;0.00;0.00;;;11.00;99.90;;;;;;4999674;28;20109;-80
2024/01/26 11:28:08;;;;;;;4.28;0.63;;;11.30;99.90;;;;;;5007475;28;20029;-81
2024/01/26 11:30:37;;;;;;;0.10;0.10;;;11.50;99.90;;;;;;5005374;28;20032;-78
2024/01/26 11:33:17;;;;;;;0.20;0.20;;;11.80;99.90;;;;;;4996938;28;20037;-78
2024/01/26 11:35:43;;;;;;;1.65;0.10;;;11.40;99.90;;;;;;4990380;28;20096;-78
2024/01/26 11:38:09;;;;;;;3.53;0.55;;;12.00;99.90;;;;;;5004144;28;20482;-78
2024/01/26 11:40:35;;;;;;;1.48;1.10;;;12.10;99.90;;;;;;4996957;28;20026;-78
2024/01/26 11:43:02;;;;;;;0.00;0.00;;;12.10;99.90;;;;;;4992249;28;20122;-78
2024/01/26 11:45:45;;;;;;;0.45;0.20;;;12.30;99.90;;;;;;4992055;28;20053;-79
2024/01/26 11:48:13;;;;;;;1.27;0.75;;;11.50;99.90;;;;;;5006060;28;20033;-79
2024/01/26 11:50:43;;;;;;;7.13;0.57;;;11.20;99.90;;;;;;5007510;28;20021;-78
2024/01/26 11:53:10;;;;;;;1.27;0.43;;;10.90;99.90;;;;;;5005894;28;20025;-78
2024/01/26 11:55:38;;;;;;;0.00;0.00;;;10.80;99.90;;;;;;4999901;28;20018;-77
2024/01/26 11:58:06;;;;;;;1.35;0.35;;;11.10;99.90;;;;;;4998779;28;20054;-77
2024/01/26 12:00:32;;;;;;;0.25;0.25;;;11.20;99.90;;;;;;5019159;28;20066;-77
2024/01/26 12:02:59;;;;;;;2.10;0.85;;;11.70;99.90;;;;;;5000329;28;20058;-77
2024/01/26 12:05:26;;;;;;;5.70;1.20;;;12.00;99.90;;;;;;5000173;28;20037;-81
2024/01/26 12:07:53;;;;;;;1.88;0.28;;;12.10;99.90;;;;;;5006212;28;20587;-81
2024/01/26 12:10:19;;;;;;;0.40;0.20;;;12.70;99.90;;;;;;4995950;28;20034;-80
2024/01/26 12:12:47;;;;;;;1.95;0.75;;;12.60;99.90;;;;;;4995291;28;20033;-81
2024/01/26 12:15:13;;;;;;;0.08;0.05;;;12.70;99.90;;;;;;4993476;28;20030;-80
2024/01/26 12:17:39;;;;;;;0.85;0.38;;;13.20;99.90;;;;;;5000069;28;20551;-80
2024/01/26 12:20:08;;;;;;;0.57;0.30;;;13.30;99.90;;;;;;5010543;28;20060;-79
2024/01/26 12:22:37;;;;;;;2.85;0.68;;;13.40;99.90;;;;;;5007829;28;20027;-80
2024/01/26 12:25:05;;;;;;;0.10;0.10;;;12.90;99.90;;;;;;5005458;28;20021;-81
2024/01/26 12:27:31;;;;;;;0.10;0.05;;;12.00;99.90;;;;;;5005080;28;20025;-81
2024/01/26 12:29:57;;;;;;;18.75;0.63;;;12.00;99.90;;;;;;4986925;28;20471;-80
2024/01/26 12:32:25;;;;;;;4.93;0.82;;;11.70;99.90;;;;;;4999216;28;20031;-80
2024/01/26 12:34:51;;;;;;;2.15;0.30;;;11.70;99.90;;;;;;5009250;28;20022;-80
2024/01/26 12:37:16;;;;;;;1.35;0.45;;;12.40;99.90;;;;;;4997757;28;20030;-81
2024/01/26 12:39:42;;;;;;;5.15;0.38;;;12.80;99.90;;;;;;5011695;28;20080;-80
2024/01/26 12:42:08;;;;;;;13.65;1.38;;;12.60;99.90;;;;;;5007753;28;20038;-80
2024/01/26 12:44:36;;;;;;;3.78;0.70;;;12.60;99.90;;;;;;4993868;28;20030;-81